createdAt,value
2018-05-24T00:01:09.212Z,17.10
2018-05-24T00:03:36.704Z,15.80
2018-05-24T00:06:05.092Z,16.27
2018-05-24T00:08:32.605Z,16.55
2018-05-24T00:11:00.064Z,15.57
2018-05-24T00:13:28.340Z,16.00
2018-05-24T00:15:55.976Z,16.00
2018-05-24T00:18:23.452Z,16.83
2018-05-24T00:20:51.122Z,17.40
2018-05-24T00:23:19.220Z,17.60
2018-05-24T00:25:46.692Z,15.15
2018-05-24T00:28:14.179Z,16.23
2018-05-24T00:30:41.789Z,17.10
2018-05-24T00:33:09.285Z,17.00
2018-05-24T00:35:36.830Z,15.30
2018-05-24T00:38:04.213Z,15.97
2018-05-24T00:40:31.700Z,15.97
2018-05-24T00:42:59.151Z,17.00
2018-05-24T00:45:34.175Z,16.95
2018-05-24T00:48:01.679Z,15.27
2018-05-24T00:50:29.136Z,16.27
2018-05-24T00:52:56.596Z,15.70
2018-05-24T00:55:35.815Z,16.12
2018-05-24T00:58:03.309Z,16.60
2018-05-24T01:00:30.765Z,16.80
2018-05-24T01:02:59.788Z,16.55
2018-05-24T01:05:28.047Z,17.55
2018-05-24T01:07:55.496Z,17.63
2018-05-24T01:10:24.301Z,16.70
2018-05-24T01:12:51.959Z,17.57
2018-05-24T01:15:23.875Z,18.10
2018-05-24T01:17:51.363Z,17.90
2018-05-24T01:20:18.833Z,19.00
2018-05-24T01:22:46.332Z,19.17
2018-05-24T01:25:13.876Z,19.10
2018-05-24T01:27:41.351Z,19.83
2018-05-24T01:30:13.283Z,17.47
2018-05-24T01:32:40.748Z,18.98
2018-05-24T01:35:09.000Z,17.27
2018-05-24T01:37:48.352Z,18.10
2018-05-24T01:40:15.853Z,17.80
2018-05-24T01:42:43.343Z,18.50
2018-05-24T01:45:15.141Z,17.40
2018-05-24T01:47:42.633Z,16.60
2018-05-24T01:50:10.174Z,17.43
2018-05-24T01:52:37.648Z,16.85
2018-05-24T01:55:05.172Z,16.95
2018-05-24T01:57:32.718Z,20.27
2018-05-24T02:00:00.202Z,20.63
2018-05-24T02:02:29.359Z,19.93
2018-05-24T02:04:56.853Z,19.05
2018-05-24T02:07:24.487Z,20.33
2018-05-24T02:09:51.936Z,20.10
2018-05-24T02:12:19.417Z,19.97
2018-05-24T02:14:48.584Z,20.77
2018-05-24T02:17:16.088Z,21.23
2018-05-24T02:19:43.624Z,21.17
2018-05-24T02:22:11.089Z,19.00
2018-05-24T02:24:38.548Z,20.13
2018-05-24T02:27:07.737Z,19.70
2018-05-24T02:29:35.244Z,18.30
2018-05-24T02:32:06.640Z,18.85
2018-05-24T02:34:34.121Z,19.00
2018-05-24T02:37:02.335Z,18.30
2018-05-24T02:39:29.945Z,18.27
2018-05-24T02:41:57.432Z,17.10
2018-05-24T02:44:24.907Z,17.33
2018-05-24T02:46:55.584Z,17.33
2018-05-24T02:49:23.048Z,17.60
2018-05-24T02:51:50.525Z,18.30
2018-05-24T02:54:17.987Z,17.97
2018-05-24T02:56:47.035Z,18.17
2018-05-24T02:59:14.517Z,16.17
2018-05-24T03:01:41.996Z,18.20
2018-05-24T03:04:09.480Z,17.52
2018-05-24T03:06:36.953Z,17.87
2018-05-24T03:09:05.204Z,18.20
2018-05-24T03:11:32.711Z,18.60
2018-05-24T03:14:00.200Z,18.83
2018-05-24T03:16:28.705Z,19.47
2018-05-24T03:18:56.186Z,20.90
2018-05-24T03:21:23.647Z,20.67
2018-05-24T03:23:51.156Z,19.30
2018-05-24T03:26:19.068Z,19.52
2018-05-24T03:28:46.555Z,19.23
2018-05-24T03:31:14.014Z,20.20
2018-05-24T03:33:42.264Z,17.60
2018-05-24T03:36:09.737Z,20.20
2018-05-24T03:38:37.284Z,20.30
2018-05-24T03:41:04.756Z,21.12
2018-05-24T03:43:33.142Z,20.40
2018-05-24T03:46:00.673Z,20.63
2018-05-24T03:48:28.129Z,20.90
2018-05-24T03:50:55.617Z,20.65
2018-05-24T03:53:23.172Z,19.30
2018-05-24T03:55:52.365Z,23.55
2018-05-24T03:58:19.852Z,22.00
2018-05-24T04:00:59.140Z,22.60
2018-05-24T04:03:38.504Z,22.43
2018-05-24T04:06:05.961Z,21.63
2018-05-24T04:08:33.652Z,22.27
2018-05-24T04:11:01.117Z,22.60
2018-05-24T04:13:30.268Z,21.65
2018-05-24T04:15:57.756Z,22.97
2018-05-24T04:18:25.232Z,23.30
2018-05-24T04:20:52.713Z,25.23
2018-05-24T04:23:20.439Z,23.50
2018-05-24T04:25:47.896Z,24.30
2018-05-24T04:28:15.384Z,24.13
2018-05-24T04:30:43.801Z,24.90
2018-05-24T04:33:14.348Z,27.50
2018-05-24T04:35:42.005Z,25.87
2018-05-24T04:38:09.606Z,21.73
2018-05-24T04:40:37.062Z,26.03
2018-05-24T04:43:04.564Z,20.60
2018-05-24T04:45:32.035Z,23.50
2018-05-24T04:48:00.392Z,18.95
2018-05-24T04:50:28.075Z,21.02
2018-05-24T04:52:56.491Z,19.80
2018-05-24T04:55:23.947Z,21.67
2018-05-24T04:57:51.471Z,20.77
2018-05-24T05:00:18.916Z,20.57
2018-05-24T05:02:46.846Z,19.65
2018-05-24T05:05:14.294Z,18.17
2018-05-24T05:07:41.872Z,17.43
2018-05-24T05:10:09.875Z,20.03
2018-05-24T05:12:37.329Z,19.90
2018-05-24T05:15:04.999Z,18.77
2018-05-24T05:17:32.735Z,18.20
2018-05-24T05:20:05.756Z,19.23
2018-05-24T05:22:33.218Z,19.63
2018-05-24T05:25:01.435Z,21.23
2018-05-24T05:27:28.928Z,21.20
2018-05-24T05:29:56.389Z,23.07
2018-05-24T05:32:23.936Z,20.52
2018-05-24T05:34:51.406Z,18.10
2018-05-24T05:37:18.924Z,20.97
2018-05-24T05:39:46.410Z,16.07
2018-05-24T05:42:15.001Z,18.60
2018-05-24T05:44:42.529Z,20.23
2018-05-24T05:47:09.915Z,19.77
2018-05-24T05:49:49.150Z,19.77
2018-05-24T05:52:16.608Z,18.70
2018-05-24T05:54:44.084Z,18.00
2018-05-24T05:57:11.553Z,16.90
2018-05-24T05:59:39.062Z,18.67
2018-05-24T06:02:06.508Z,20.37
2018-05-24T06:04:35.659Z,18.53
2018-05-24T06:07:06.058Z,20.77
2018-05-24T06:09:33.538Z,21.97
2018-05-24T06:12:01.000Z,21.20
2018-05-24T06:14:28.819Z,22.50
2018-05-24T06:16:56.297Z,20.30
2018-05-24T06:19:23.770Z,17.90
2018-05-24T06:21:55.409Z,17.70
2018-05-24T06:24:22.879Z,19.17
2018-05-24T06:26:50.401Z,20.07
2018-05-24T06:29:17.926Z,19.12
2018-05-24T06:31:45.385Z,20.73
2018-05-24T06:34:12.944Z,17.80
2018-05-24T06:36:52.047Z,17.83
2018-05-24T06:39:19.515Z,16.93
2018-05-24T06:41:47.005Z,16.40
2018-05-24T06:44:15.900Z,15.05
2018-05-24T06:46:43.405Z,17.37
2018-05-24T06:49:11.673Z,16.70
2018-05-24T06:51:44.072Z,20.77
2018-05-24T06:54:11.558Z,16.50
2018-05-24T06:56:39.049Z,15.63
2018-05-24T06:59:06.552Z,14.90
2018-05-24T07:01:34.640Z,14.47
2018-05-24T07:04:09.517Z,15.85
2018-05-24T07:06:40.563Z,11.30
2018-05-24T07:09:08.028Z,10.83
2018-05-24T07:11:36.364Z,11.18
2018-05-24T07:14:03.874Z,11.70
2018-05-24T07:16:31.351Z,9.90
2018-05-24T07:18:58.803Z,11.00
2018-05-24T07:21:30.839Z,9.60
2018-05-24T07:23:58.300Z,10.25
2018-05-24T07:26:25.784Z,8.63
2018-05-24T07:28:53.251Z,7.20
2018-05-24T07:31:20.758Z,7.30
2018-05-24T07:33:48.217Z,8.07
2018-05-24T07:36:15.695Z,8.27
2018-05-24T07:38:43.194Z,9.77
2018-05-24T07:41:10.695Z,10.98
2018-05-24T07:43:40.110Z,9.85
2018-05-24T07:46:07.603Z,12.50
2018-05-24T07:48:35.076Z,14.10
2018-05-24T07:51:02.623Z,12.40
2018-05-24T07:53:30.225Z,9.95
2018-05-24T07:55:58.019Z,13.82
2018-05-24T07:58:25.576Z,12.32
2018-05-24T08:00:53.065Z,13.30
2018-05-24T08:03:20.568Z,10.23
2018-05-24T08:05:48.040Z,10.15
2018-05-24T08:08:15.539Z,10.60
2018-05-24T08:10:43.005Z,12.83
2018-05-24T08:13:12.192Z,11.80
2018-05-24T08:15:39.761Z,11.93
2018-05-24T08:18:07.217Z,10.15
2018-05-24T08:20:34.680Z,10.82
2018-05-24T08:23:06.659Z,12.30
2018-05-24T08:25:34.144Z,11.73
2018-05-24T08:28:01.657Z,12.97
2018-05-24T08:30:29.208Z,15.47
2018-05-24T08:32:56.724Z,13.82
2018-05-24T08:35:24.184Z,13.07
2018-05-24T08:37:56.710Z,12.93
2018-05-24T08:40:24.216Z,13.23
2018-05-24T08:42:51.707Z,12.05
2018-05-24T08:45:22.048Z,11.02
2018-05-24T08:47:49.575Z,12.67
2018-05-24T08:50:17.088Z,12.50
2018-05-24T08:52:49.431Z,13.90
2018-05-24T08:55:16.927Z,13.70
2018-05-24T08:57:44.398Z,12.20
2018-05-24T09:00:11.973Z,11.00
2018-05-24T09:02:39.889Z,12.30
2018-05-24T09:05:07.701Z,11.25
2018-05-24T09:07:39.705Z,10.90
2018-05-24T09:10:07.247Z,11.73
2018-05-24T09:12:35.716Z,11.70
2018-05-24T09:15:03.273Z,11.70
2018-05-24T09:17:30.735Z,11.87
2018-05-24T09:19:59.794Z,11.80
2018-05-24T09:22:27.830Z,10.37
2018-05-24T09:24:56.581Z,10.82
2018-05-24T09:27:24.082Z,12.43
2018-05-24T09:29:51.648Z,11.67
2018-05-24T09:32:19.869Z,11.68
2018-05-24T09:34:47.348Z,10.32
2018-05-24T09:37:14.819Z,11.23
2018-05-24T09:39:42.317Z,11.33
2018-05-24T09:42:09.827Z,11.85
2018-05-24T09:44:37.560Z,9.43
2018-05-24T09:47:05.023Z,10.75
2018-05-24T09:49:32.516Z,11.80
2018-05-24T09:51:59.997Z,12.60
2018-05-24T09:54:28.399Z,11.90
2018-05-24T09:56:56.672Z,13.00
2018-05-24T09:59:25.658Z,12.73
2018-05-24T10:01:53.113Z,11.10
2018-05-24T10:04:20.716Z,12.40
2018-05-24T10:06:48.192Z,11.47
2018-05-24T10:09:15.706Z,11.83
2018-05-24T10:11:43.360Z,11.73
2018-05-24T10:14:10.830Z,12.13
2018-05-24T10:16:38.344Z,11.40
2018-05-24T10:19:06.753Z,11.00
2018-05-24T10:21:34.279Z,10.27
2018-05-24T10:24:02.376Z,9.70
2018-05-24T10:26:30.184Z,9.50
2018-05-24T10:28:58.490Z,8.55
2018-05-24T10:31:25.969Z,7.90
2018-05-24T10:33:53.449Z,8.17
2018-05-24T10:36:20.964Z,8.50
2018-05-24T10:38:48.428Z,8.53
2018-05-24T10:41:17.128Z,7.65
2018-05-24T10:43:45.256Z,7.18
2018-05-24T10:46:12.702Z,6.47
2018-05-24T10:48:40.189Z,7.60
2018-05-24T10:51:07.944Z,8.15
2018-05-24T10:53:35.375Z,8.77
2018-05-24T10:56:02.894Z,7.83
2018-05-24T10:58:30.465Z,8.33
2018-05-24T11:00:59.467Z,8.70
2018-05-24T11:03:26.970Z,8.93
2018-05-24T11:05:54.444Z,9.87
2018-05-24T11:08:21.951Z,10.02
2018-05-24T11:10:49.438Z,11.63
2018-05-24T11:13:18.493Z,14.38
2018-05-24T11:15:45.972Z,13.30
2018-05-24T11:18:13.456Z,12.13
2018-05-24T11:20:41.186Z,12.50
2018-05-24T11:23:09.427Z,12.68
2018-05-24T11:25:41.281Z,12.90
2018-05-24T11:28:08.820Z,13.23
2018-05-24T11:30:36.349Z,13.20
2018-05-24T11:33:05.677Z,15.30
2018-05-24T11:35:33.240Z,14.30
2018-05-24T11:38:01.704Z,12.77
2018-05-24T11:40:33.325Z,11.40
2018-05-24T11:43:02.738Z,9.40
2018-05-24T11:45:30.308Z,11.40
2018-05-24T11:47:57.869Z,10.10
2018-05-24T11:50:25.382Z,10.73
2018-05-24T11:52:53.013Z,11.02
2018-05-24T11:55:27.787Z,11.97
2018-05-24T11:57:55.303Z,12.33
2018-05-24T12:00:22.954Z,13.07
2018-05-24T12:02:50.514Z,13.50
2018-05-24T12:05:18.004Z,13.07
2018-05-24T12:07:45.544Z,14.77
2018-05-24T12:10:14.104Z,17.27
2018-05-24T12:12:41.843Z,14.90
2018-05-24T12:15:09.517Z,15.85
2018-05-24T12:17:37.016Z,14.98
2018-05-24T12:20:04.569Z,16.80
2018-05-24T12:22:32.145Z,15.30
2018-05-24T12:25:00.540Z,15.97
2018-05-24T12:27:28.864Z,16.17
2018-05-24T12:29:56.384Z,14.07
2018-05-24T12:32:23.924Z,11.43
2018-05-24T12:34:51.744Z,14.90
2018-05-24T12:37:20.836Z,12.73
2018-05-24T12:39:48.351Z,12.53
2018-05-24T12:42:15.867Z,15.20
2018-05-24T12:44:44.214Z,16.57
2018-05-24T12:47:11.685Z,18.60
2018-05-24T12:49:40.594Z,20.98
2018-05-24T12:52:08.912Z,19.20
2018-05-24T12:54:36.418Z,16.93
2018-05-24T12:57:04.752Z,17.58
2018-05-24T12:59:32.257Z,17.00
2018-05-24T13:01:59.797Z,16.55
2018-05-24T13:04:28.127Z,13.38
2018-05-24T13:06:55.723Z,12.77
2018-05-24T13:09:24.714Z,10.77
2018-05-24T13:11:58.816Z,12.77
2018-05-24T13:14:27.089Z,11.63
2018-05-24T13:16:54.584Z,9.83
2018-05-24T13:19:22.089Z,8.30
2018-05-24T13:21:49.564Z,8.13
2018-05-24T13:24:17.853Z,8.43
2018-05-24T13:26:49.051Z,7.00
2018-05-24T13:29:16.543Z,7.53
2018-05-24T13:31:44.460Z,7.27
2018-05-24T13:34:11.951Z,7.63
2018-05-24T13:36:39.566Z,6.53
2018-05-24T13:39:07.053Z,8.53
2018-05-24T13:41:34.575Z,8.17
2018-05-24T13:44:02.066Z,7.87
2018-05-24T13:46:29.602Z,8.60
2018-05-24T13:48:57.993Z,8.45
2018-05-24T13:51:25.434Z,7.40
2018-05-24T13:53:54.060Z,7.45
2018-05-24T13:56:22.132Z,8.20
2018-05-24T13:58:53.215Z,7.00
2018-05-24T14:01:20.801Z,8.13
2018-05-24T14:03:48.249Z,9.10
2018-05-24T14:06:15.889Z,8.45
2018-05-24T14:08:43.410Z,6.60
2018-05-24T14:11:12.517Z,6.82
2018-05-24T14:13:39.981Z,6.63
2018-05-24T14:16:07.703Z,7.30
2018-05-24T14:18:36.091Z,7.40
2018-05-24T14:21:03.580Z,7.47
2018-05-24T14:23:31.036Z,6.80
2018-05-24T14:25:58.548Z,7.57
2018-05-24T14:28:30.587Z,7.47
2018-05-24T14:30:58.080Z,6.65
2018-05-24T14:33:25.742Z,8.20
2018-05-24T14:35:53.224Z,7.40
2018-05-24T14:38:20.941Z,7.47
2018-05-24T14:40:49.282Z,7.60
2018-05-24T14:43:20.048Z,8.13
2018-05-24T14:45:47.534Z,7.00
2018-05-24T14:48:15.320Z,6.30
2018-05-24T14:50:42.832Z,5.70
2018-05-24T14:53:11.167Z,6.43
2018-05-24T14:55:38.674Z,6.20
2018-05-24T14:58:07.128Z,7.90
2018-05-24T15:00:35.157Z,5.92
2018-05-24T15:03:02.823Z,7.77
2018-05-24T15:05:30.360Z,5.30
2018-05-24T15:07:57.915Z,6.80
2018-05-24T15:10:25.401Z,6.30
2018-05-24T15:12:54.606Z,5.80
2018-05-24T15:15:22.304Z,4.97
2018-05-24T15:17:49.817Z,5.80
2018-05-24T15:20:17.297Z,5.82
2018-05-24T15:22:44.760Z,6.77
2018-05-24T15:25:12.243Z,4.83
2018-05-24T15:27:39.801Z,5.90
2018-05-24T15:30:08.049Z,6.87
2018-05-24T15:32:35.560Z,6.05
2018-05-24T15:35:03.073Z,6.07
2018-05-24T15:37:30.716Z,6.10
2018-05-24T15:39:58.228Z,5.50
2018-05-24T15:42:25.701Z,6.43
2018-05-24T15:44:53.180Z,6.75
2018-05-24T15:47:22.465Z,5.57
2018-05-24T15:49:50.958Z,5.35
2018-05-24T15:52:19.193Z,5.60
2018-05-24T15:54:46.797Z,6.23
2018-05-24T15:57:14.282Z,5.53
2018-05-24T15:59:49.076Z,4.67
2018-05-24T16:02:16.883Z,5.20
2018-05-24T16:04:44.419Z,4.43
2018-05-24T16:07:11.878Z,3.77
2018-05-24T16:09:39.400Z,5.00
2018-05-24T16:12:06.874Z,4.20
2018-05-24T16:14:37.552Z,5.40
2018-05-24T16:17:05.195Z,4.03
2018-05-24T16:19:32.705Z,4.63
2018-05-24T16:22:02.509Z,4.80
2018-05-24T16:24:31.689Z,4.22
2018-05-24T16:26:59.186Z,3.77
2018-05-24T16:29:26.650Z,4.00
2018-05-24T16:31:54.244Z,4.93
2018-05-24T16:34:21.776Z,4.90
2018-05-24T16:36:49.537Z,3.97
2018-05-24T16:39:17.796Z,4.70
2018-05-24T16:41:45.309Z,4.43
2018-05-24T16:44:12.852Z,5.00
2018-05-24T16:46:48.555Z,3.50
2018-05-24T16:49:16.519Z,3.60
2018-05-24T16:51:44.310Z,3.80
2018-05-24T16:54:11.865Z,4.43
2018-05-24T16:56:41.010Z,3.67
2018-05-24T16:59:08.525Z,3.70
2018-05-24T17:01:46.420Z,4.20
2018-05-24T17:04:14.769Z,3.85
2018-05-24T17:06:42.241Z,5.00
2018-05-24T17:09:09.832Z,5.85
2018-05-24T17:11:37.403Z,5.90
2018-05-24T17:14:05.871Z,5.30
2018-05-24T17:16:33.386Z,5.93
2018-05-24T17:19:04.726Z,4.90
2018-05-24T17:21:32.553Z,5.47
2018-05-24T17:24:00.929Z,4.87
2018-05-24T17:26:28.388Z,5.00
2018-05-24T17:28:55.908Z,5.53
2018-05-24T17:31:28.144Z,4.43
2018-05-24T17:33:56.820Z,5.12
2018-05-24T17:36:24.423Z,4.67
2018-05-24T17:38:52.879Z,4.87
2018-05-24T17:41:20.972Z,3.97
2018-05-24T17:43:48.633Z,5.87
2018-05-24T17:46:16.121Z,3.73
2018-05-24T17:48:43.756Z,5.10
2018-05-24T17:51:11.221Z,4.37
2018-05-24T17:53:38.766Z,4.72
2018-05-24T17:56:06.272Z,4.27
2018-05-24T17:58:35.369Z,3.87
2018-05-24T18:01:03.561Z,3.90
2018-05-24T18:03:31.079Z,4.57
2018-05-24T18:05:59.505Z,4.77
2018-05-24T18:08:27.041Z,4.07
2018-05-24T18:10:54.630Z,4.37
2018-05-24T18:13:22.178Z,3.28
2018-05-24T18:15:49.676Z,4.18
2018-05-24T18:18:17.260Z,3.50
2018-05-24T18:20:45.391Z,4.20
2018-05-24T18:23:13.453Z,3.82
2018-05-24T18:25:41.746Z,3.70
2018-05-24T18:28:09.520Z,5.07
2018-05-24T18:30:38.692Z,3.53
2018-05-24T18:33:06.264Z,3.93
2018-05-24T18:35:33.759Z,3.20
2018-05-24T18:38:01.269Z,4.57
2018-05-24T18:40:28.776Z,3.97
2018-05-24T18:42:58.022Z,3.35
2018-05-24T18:45:25.629Z,3.57
2018-05-24T18:47:53.124Z,3.53
2018-05-24T18:50:20.607Z,4.68
2018-05-24T18:52:48.083Z,4.63
2018-05-24T18:55:15.588Z,4.10
2018-05-24T18:57:43.092Z,4.83
2018-05-24T19:00:11.254Z,5.72
2018-05-24T19:02:46.874Z,4.93
2018-05-24T19:05:14.483Z,4.00
2018-05-24T19:07:43.069Z,4.93
2018-05-24T19:10:10.602Z,5.10
2018-05-24T19:12:38.187Z,4.40
2018-05-24T19:15:07.409Z,5.47
2018-05-24T19:17:39.148Z,4.53
2018-05-24T19:20:07.663Z,4.30
2018-05-24T19:22:35.160Z,5.17
2018-05-24T19:25:03.529Z,5.20
2018-05-24T19:27:31.913Z,5.57
2018-05-24T19:29:59.400Z,7.00
2018-05-24T19:32:27.676Z,6.65
2018-05-24T19:34:55.366Z,6.10
2018-05-24T19:37:22.864Z,6.70
2018-05-24T19:39:51.555Z,5.93
2018-05-24T19:42:19.122Z,7.10
2018-05-24T19:44:47.600Z,8.68
2018-05-24T19:47:15.767Z,8.43
2018-05-24T19:49:46.266Z,8.40
2018-05-24T19:52:13.913Z,10.23
2018-05-24T19:54:41.422Z,9.00
2018-05-24T19:57:08.877Z,8.27
2018-05-24T19:59:36.357Z,9.30
2018-05-24T20:02:03.812Z,10.10
2018-05-24T20:04:31.292Z,9.10
2018-05-24T20:06:59.733Z,9.50
2018-05-24T20:09:27.196Z,9.60
2018-05-24T20:11:54.694Z,10.93
2018-05-24T20:14:22.190Z,10.93
2018-05-24T20:16:49.685Z,9.48
2018-05-24T20:19:17.229Z,10.40
2018-05-24T20:21:45.480Z,11.60
2018-05-24T20:24:13.965Z,13.00
2018-05-24T20:26:41.453Z,11.50
2018-05-24T20:29:09.724Z,10.50
2018-05-24T20:31:38.918Z,11.88
2018-05-24T20:34:07.172Z,12.67
2018-05-24T20:36:34.699Z,10.65
2018-05-24T20:39:02.683Z,11.23
2018-05-24T20:41:30.148Z,11.50
2018-05-24T20:43:57.629Z,10.65
2018-05-24T20:46:25.119Z,12.10
2018-05-24T20:48:52.648Z,12.13
2018-05-24T20:51:20.152Z,11.30
2018-05-24T20:53:49.375Z,11.37
2018-05-24T20:56:18.498Z,11.63
2018-05-24T20:58:47.632Z,12.64
2018-05-24T21:01:15.949Z,11.17
2018-05-24T21:03:43.535Z,11.60
2018-05-24T21:06:13.481Z,12.05
2018-05-24T21:08:42.591Z,11.80
2018-05-24T21:11:10.913Z,11.00
2018-05-24T21:13:38.477Z,12.10
2018-05-24T21:16:06.951Z,11.73
2018-05-24T21:18:38.673Z,11.40
2018-05-24T21:21:06.958Z,12.02
2018-05-24T21:23:34.469Z,11.27
2018-05-24T21:26:02.970Z,12.10
2018-05-24T21:28:30.471Z,12.20
2018-05-24T21:30:57.959Z,12.17
2018-05-24T21:33:27.349Z,13.30
2018-05-24T21:35:54.821Z,11.68
2018-05-24T21:38:26.823Z,12.10
2018-05-24T21:40:54.288Z,11.20
2018-05-24T21:43:21.780Z,12.07
2018-05-24T21:45:49.247Z,11.60
2018-05-24T21:48:16.752Z,12.70
2018-05-24T21:50:47.519Z,12.90
2018-05-24T21:53:15.052Z,12.13
2018-05-24T21:55:42.540Z,12.13
2018-05-24T21:58:10.822Z,12.75
2018-05-24T22:00:38.498Z,12.43
2018-05-24T22:03:06.226Z,13.20
2018-05-24T22:05:37.181Z,12.33
2018-05-24T22:08:04.636Z,12.50
2018-05-24T22:10:32.216Z,13.60
2018-05-24T22:13:00.318Z,13.75
2018-05-24T22:15:27.828Z,11.30
2018-05-24T22:17:55.288Z,12.67
2018-05-24T22:20:22.946Z,12.10
2018-05-24T22:22:50.431Z,12.52
2018-05-24T22:25:17.889Z,12.90
2018-05-24T22:27:45.381Z,13.60
2018-05-24T22:30:12.875Z,12.17
2018-05-24T22:32:40.352Z,12.75
2018-05-24T22:35:09.541Z,13.53
2018-05-24T22:37:37.029Z,13.85
2018-05-24T22:40:04.550Z,12.20
2018-05-24T22:42:32.020Z,14.10
2018-05-24T22:45:00.259Z,13.17
2018-05-24T22:47:27.920Z,13.83
2018-05-24T22:49:55.404Z,13.07
2018-05-24T22:52:26.569Z,13.40
2018-05-24T22:54:54.793Z,12.47
2018-05-24T22:57:22.970Z,12.13
2018-05-24T22:59:50.456Z,12.93
2018-05-24T23:02:17.960Z,12.53
2018-05-24T23:04:45.464Z,13.07
2018-05-24T23:07:24.708Z,13.07
2018-05-24T23:09:52.199Z,14.13
2018-05-24T23:12:19.711Z,14.90
2018-05-24T23:14:47.169Z,14.10
2018-05-24T23:17:14.635Z,13.50
2018-05-24T23:19:42.705Z,13.52
2018-05-24T23:22:18.568Z,14.80
2018-05-24T23:24:46.332Z,14.77
2018-05-24T23:27:13.948Z,13.62
2018-05-24T23:29:41.543Z,12.90
2018-05-24T23:32:09.016Z,13.73
2018-05-24T23:34:36.499Z,12.95
2018-05-24T23:37:03.979Z,12.95
2018-05-24T23:39:35.064Z,14.40
2018-05-24T23:42:04.219Z,12.77
2018-05-24T23:44:31.741Z,14.37
2018-05-24T23:47:00.026Z,13.80
2018-05-24T23:49:27.924Z,12.82
2018-05-24T23:51:55.421Z,13.85
2018-05-24T23:54:22.889Z,13.50
2018-05-24T23:56:51.255Z,14.30
2018-05-24T23:59:18.709Z,14.03
